Time;durP1;ratioP1;P1;durP2;ratioP2;P2;SDS_P1;SDS_P2;PMS_P1;PMS_P2;Temp;Humidity;BMP_temperature;BMP_pressure;BME280_temperature;BME280_humidity;BME280_pressure;Samples;Min_cycle;Max_cycle;Signal;HPM_P1;HPM_P2
2022/01/13 00:00:37;;;;;;;397.98;298.35;;;;;;;25.12;42.72;103744.03;5106511;27;20389;-46
2022/01/13 00:03:05;;;;;;;403.35;299.70;;;;;;;25.09;42.76;103738.59;5124929;27;20031;-45
2022/01/13 00:05:34;;;;;;;397.13;300.17;;;;;;;25.03;42.85;103742.69;5124373;27;20043;-48
2022/01/13 00:08:03;;;;;;;390.85;298.58;;;;;;;25.02;42.70;103745.25;5106145;27;20053;-44
2022/01/13 00:10:35;;;;;;;396.17;298.73;;;;;;;25.01;42.84;103744.34;5125318;27;20071;-45
2022/01/13 00:13:05;;;;;;;406.30;303.38;;;;;;;25.03;42.70;103747.94;5107266;27;20015;-45
2022/01/13 00:18:50;;;;;;;408.27;308.10;;;;;;;24.99;42.98;103742.47;5099119;27;20070;-46
2022/01/13 00:21:56;;;;;;;404.40;303.63;;;;;;;24.97;42.64;103738.84;5109455;27;20651;-45
2022/01/13 00:23:59;;;;;;;407.13;304.08;;;;;;;24.97;42.77;103739.78;5117783;27;20036;-48
2022/01/13 00:26:29;;;;;;;403.40;301.35;;;;;;;24.98;42.76;103735.41;5124877;27;20030;-45
2022/01/13 00:29:01;;;;;;;408.77;304.25;;;;;;;24.98;42.80;103727.53;5124621;27;20027;-45
2022/01/13 00:31:32;;;;;;;402.98;303.25;;;;;;;24.97;42.90;103725.72;5125096;27;20027;-46
2022/01/13 00:34:04;;;;;;;409.73;305.13;;;;;;;24.97;42.91;103715.22;5124429;27;20512;-46
2022/01/13 00:36:35;;;;;;;401.63;304.95;;;;;;;24.89;42.78;103714.81;5124878;27;20027;-45
2022/01/13 00:39:04;;;;;;;404.15;309.52;;;;;;;24.91;42.89;103715.81;5124365;27;20042;-46
2022/01/13 00:41:33;;;;;;;400.02;306.48;;;;;;;24.88;43.12;103713.94;5124511;27;20027;-44
2022/01/13 00:44:03;;;;;;;413.15;303.23;;;;;;;24.93;43.15;103706.28;5105890;27;20027;-44
2022/01/13 00:46:41;;;;;;;405.90;310.17;;;;;;;24.90;42.96;103706.13;5106035;27;20027;-45
2022/01/13 00:49:11;;;;;;;413.63;312.75;;;;;;;24.89;42.99;103699.06;5124584;27;20066;-45
2022/01/13 00:51:40;;;;;;;412.92;311.30;;;;;;;24.87;42.90;103700.69;5124046;27;20030;-46
2022/01/13 00:54:09;;;;;;;420.00;315.70;;;;;;;24.88;42.90;103689.38;5095312;27;20392;-45
2022/01/13 00:56:38;;;;;;;405.77;309.90;;;;;;;24.91;42.96;103691.25;5124102;27;20034;-47
2022/01/13 00:59:09;;;;;;;408.20;311.33;;;;;;;24.85;42.97;103689.22;5123940;27;20092;-47
2022/01/13 01:01:44;;;;;;;413.20;313.08;;;;;;;24.88;43.03;103686.75;5124358;27;20053;-45
2022/01/13 01:04:13;;;;;;;424.48;318.15;;;;;;;24.87;42.91;103690.19;5123936;27;20072;-45
2022/01/13 01:06:42;;;;;;;415.10;316.60;;;;;;;24.92;43.13;103688.72;5124097;27;20083;-45
2022/01/13 01:09:16;;;;;;;418.08;316.83;;;;;;;24.88;43.22;103687.66;5124122;27;20091;-45
2022/01/13 01:11:47;;;;;;;424.13;321.58;;;;;;;24.91;43.04;103686.91;5123923;27;20381;-45
2022/01/13 01:14:17;;;;;;;426.48;321.70;;;;;;;24.89;43.00;103691.19;5123909;28;20353;-45
2022/01/13 01:16:46;;;;;;;417.73;320.88;;;;;;;24.88;43.24;103692.00;5123530;28;20412;-45
2022/01/13 01:19:15;;;;;;;421.77;320.73;;;;;;;24.86;43.04;103693.63;5124266;28;20035;-44
2022/01/13 01:26:54;;;;;;;422.75;324.02;;;;;;;24.85;43.25;103691.84;5126567;27;20028;-47
2022/01/13 01:29:28;;;;;;;427.38;323.13;;;;;;;24.88;43.15;103694.63;5127757;27;20288;-44
2022/01/13 01:31:57;;;;;;;421.92;319.65;;;;;;;24.82;43.25;103689.97;5128252;27;20076;-45
2022/01/13 01:36:58;;;;;;;423.38;325.75;;;;;;;24.81;43.23;103689.91;5127906;27;20102;-45
2022/01/13 01:39:26;;;;;;;423.13;320.92;;;;;;;24.79;43.01;103688.91;5109789;27;20039;-45
2022/01/13 01:41:56;;;;;;;436.52;327.90;;;;;;;24.82;42.87;103689.97;5109146;27;20495;-44
2022/01/13 01:44:31;;;;;;;424.38;328.10;;;;;;;24.81;43.09;103684.66;5127800;27;20027;-44
2022/01/13 01:47:00;;;;;;;436.05;326.65;;;;;;;24.79;42.99;103688.91;5127814;27;20027;-45
2022/01/13 01:49:32;;;;;;;435.05;331.08;;;;;;;24.82;43.24;103684.72;5128113;27;20551;-46
2022/01/13 01:52:02;;;;;;;428.38;326.45;;;;;;;24.83;43.04;103693.47;5127724;27;20385;-45
2022/01/13 01:54:31;;;;;;;436.08;332.73;;;;;;;24.81;43.36;103695.16;5127650;27;20648;-45
2022/01/13 01:57:00;;;;;;;436.00;333.20;;;;;;;24.78;43.19;103695.88;5128221;27;20058;-45
2022/01/13 01:59:31;;;;;;;430.67;334.63;;;;;;;24.75;43.23;103690.44;5127643;27;20032;-44
2022/01/13 02:02:00;;;;;;;424.60;326.60;;;;;;;24.79;43.36;103688.91;5127433;27;20591;-44
2022/01/13 02:04:29;;;;;;;428.10;330.67;;;;;;;24.78;43.01;103690.63;5127044;27;20031;-45
2022/01/13 02:07:02;;;;;;;437.40;336.25;;;;;;;24.76;43.16;103687.00;5127310;27;20090;-44
2022/01/13 02:09:31;;;;;;;431.27;329.52;;;;;;;24.82;42.82;103691.69;5127532;27;20246;-43
2022/01/13 02:12:04;;;;;;;440.65;335.73;;;;;;;24.65;43.46;103672.38;5127179;27;20031;-44
2022/01/13 02:14:36;;;;;;;429.10;329.88;;;;;;;24.81;43.20;103695.16;5109650;27;20030;-44
2022/01/13 02:17:10;;;;;;;432.65;335.55;;;;;;;24.65;43.07;103665.44;5126819;27;20037;-43
2022/01/13 02:19:43;;;;;;;443.05;338.95;;;;;;;24.76;43.22;103694.00;5127295;27;20031;-44
2022/01/13 02:22:12;;;;;;;439.85;337.35;;;;;;;24.77;42.95;103693.16;5127227;27;20039;-44
2022/01/13 02:24:41;;;;;;;430.92;328.98;;;;;;;24.74;43.14;103709.63;5126849;27;20122;-45
2022/01/13 02:27:10;;;;;;;434.23;337.70;;;;;;;24.70;43.25;103700.72;5127254;27;20031;-45
2022/01/13 02:29:38;;;;;;;428.25;333.23;;;;;;;24.69;43.10;103697.97;5127236;27;20080;-47
2022/01/13 02:32:09;;;;;;;442.08;343.52;;;;;;;24.70;43.14;103707.69;5091133;27;20118;-45
2022/01/13 02:34:37;;;;;;;430.83;334.27;;;;;;;24.71;43.11;103701.63;5126469;27;20070;-45
2022/01/13 02:37:06;;;;;;;427.92;332.10;;;;;;;24.70;43.33;103705.06;5126152;27;20436;-45
2022/01/13 02:39:35;;;;;;;430.42;336.05;;;;;;;24.64;43.43;103705.63;5126327;27;20392;-46
2022/01/13 02:42:12;;;;;;;432.08;335.58;;;;;;;24.66;43.19;103700.44;5108551;27;20019;-45
2022/01/13 02:44:49;;;;;;;428.50;333.08;;;;;;;24.67;42.95;103699.63;5109300;27;20035;-47
2022/01/13 02:47:35;;;;;;;435.98;338.42;;;;;;;24.66;43.43;103698.69;5126483;27;20069;-47
2022/01/13 02:50:05;;;;;;;430.77;337.65;;;;;;;24.66;43.37;103695.19;5111395;27;20519;-48
2022/01/13 02:52:34;;;;;;;438.13;337.00;;;;;;;24.65;43.04;103699.56;5126770;27;20042;-47
2022/01/13 02:55:03;;;;;;;434.02;334.75;;;;;;;24.64;43.21;103694.19;5126652;27;20420;-45
2022/01/13 02:57:32;;;;;;;435.25;335.48;;;;;;;24.63;43.07;103693.31;5126409;27;20360;-45
2022/01/13 03:00:01;;;;;;;434.70;331.35;;;;;;;24.65;42.96;103699.56;5126736;27;20084;-45
2022/01/13 03:02:31;;;;;;;436.92;339.42;;;;;;;24.63;43.16;103690.69;5126152;27;20035;-46
2022/01/13 03:05:00;;;;;;;443.42;343.30;;;;;;;24.63;43.29;103690.69;5125778;27;20174;-46
2022/01/13 03:07:33;;;;;;;442.63;339.02;;;;;;;24.65;43.25;103686.44;5126485;27;20030;-45
2022/01/13 03:10:02;;;;;;;435.05;340.05;;;;;;;24.63;43.31;103695.00;5107197;27;20407;-46
2022/01/13 03:12:33;;;;;;;440.77;334.70;;;;;;;24.63;43.26;103689.78;5126146;27;20063;-45
2022/01/13 03:15:02;;;;;;;441.90;341.27;;;;;;;24.63;43.39;103674.94;5125514;27;20031;-45
2022/01/13 03:17:30;;;;;;;432.05;337.95;;;;;;;24.65;43.14;103672.38;5126204;27;20282;-45
2022/01/13 03:19:59;;;;;;;441.75;344.15;;;;;;;24.62;43.13;103670.50;5126155;27;20091;-45
2022/01/13 03:22:28;;;;;;;434.67;339.95;;;;;;;24.61;43.11;103665.16;5126444;27;20027;-44
2022/01/13 03:24:57;;;;;;;439.10;340.67;;;;;;;24.61;43.02;103662.53;5125985;27;20026;-46
2022/01/13 03:27:33;;;;;;;432.52;334.25;;;;;;;24.57;43.17;103662.38;5126060;27;20027;-46
2022/01/13 03:30:05;;;;;;;432.58;336.85;;;;;;;24.56;43.05;103657.06;5125652;27;20391;-44
2022/01/13 03:32:34;;;;;;;431.83;332.52;;;;;;;24.57;42.98;103653.59;5125838;27;20035;-45
2022/01/13 03:35:03;;;;;;;435.50;336.38;;;;;;;24.56;43.03;103649.19;5125771;27;20027;-45
2022/01/13 03:37:32;;;;;;;446.20;335.75;;;;;;;24.54;43.10;103649.09;5125629;27;20551;-44
2022/01/13 03:40:01;;;;;;;439.92;337.52;;;;;;;24.53;43.47;103641.13;5106971;27;20038;-48
2022/01/13 03:42:30;;;;;;;434.50;330.17;;;;;;;24.52;43.35;103642.88;5124874;27;20038;-46
2022/01/13 03:44:58;;;;;;;437.02;331.85;;;;;;;24.52;43.30;103642.88;5097404;27;20392;-45
2022/01/13 03:47:27;;;;;;;430.63;336.00;;;;;;;24.52;43.00;103642.88;5125816;27;20031;-45
2022/01/13 03:49:55;;;;;;;436.25;336.83;;;;;;;24.55;43.39;103643.03;5125565;27;20400;-46
2022/01/13 03:52:24;;;;;;;435.55;335.73;;;;;;;24.54;43.14;103637.69;5125292;27;20039;-44
2022/01/13 03:55:30;;;;;;;432.98;329.40;;;;;;;24.55;43.18;103643.03;5124950;27;20030;-46
2022/01/13 03:58:21;;;;;;;433.83;337.10;;;;;;;24.54;43.00;103640.31;5117356;27;20235;-45
2022/01/13 04:01:07;;;;;;;438.48;338.65;;;;;;;24.54;42.97;103646.47;5118999;27;20861;-45
2022/01/13 04:03:36;;;;;;;446.55;342.23;;;;;;;24.55;43.24;103647.38;5115584;27;20043;-44
2022/01/13 04:06:23;;;;;;;440.67;340.15;;;;;;;24.56;43.16;103650.09;5125099;27;20051;-44
2022/01/13 04:08:52;;;;;;;444.20;336.27;;;;;;;24.49;43.06;103654.94;5124937;27;20031;-45
2022/01/13 04:11:25;;;;;;;445.27;341.75;;;;;;;24.48;43.42;103637.38;5125083;27;20084;-46
2022/01/13 04:14:01;;;;;;;432.65;332.30;;;;;;;24.44;43.57;103638.91;5124942;27;20054;-45
2022/01/13 04:16:32;;;;;;;444.75;338.00;;;;;;;24.45;43.51;103638.09;5124957;27;20031;-45
2022/01/13 04:19:04;;;;;;;426.77;334.83;;;;;;;24.40;43.25;103643.13;5125170;27;20027;-49
2022/01/13 04:21:35;;;;;;;434.58;335.05;;;;;;;24.43;43.47;103639.75;5125018;27;20039;-45
2022/01/13 04:24:04;;;;;;;443.45;342.15;;;;;;;24.39;43.41;103628.19;5124563;27;20034;-46
2022/01/13 04:26:34;;;;;;;441.40;341.83;;;;;;;24.45;42.97;103632.84;5124743;27;20030;-45
2022/01/13 04:29:20;;;;;;;432.55;338.70;;;;;;;24.45;43.23;103634.59;5106591;27;20035;-45
2022/01/13 04:31:50;;;;;;;420.85;326.27;;;;;;;24.48;42.87;103634.75;5124690;27;20031;-44
2022/01/13 04:34:19;;;;;;;435.95;334.23;;;;;;;24.43;43.37;103635.41;5124696;27;20051;-45
2022/01/13 04:36:49;;;;;;;430.60;333.75;;;;;;;24.41;43.42;103638.75;5124771;27;20053;-44
2022/01/13 04:39:18;;;;;;;436.30;334.05;;;;;;;24.44;43.15;103644.16;5106154;27;20031;-44
2022/01/13 04:41:47;;;;;;;445.75;338.90;;;;;;;24.47;42.85;103641.72;5124149;27;20031;-45
2022/01/13 04:44:18;;;;;;;451.05;343.13;;;;;;;24.46;42.93;103639.91;5124073;27;20038;-44
2022/01/13 04:46:48;;;;;;;433.30;332.27;;;;;;;24.43;42.94;103638.03;5124173;27;20031;-46
2022/01/13 04:49:18;;;;;;;438.58;337.55;;;;;;;24.42;43.24;103635.31;5124295;27;20046;-44
2022/01/13 04:51:48;;;;;;;436.08;330.25;;;;;;;24.38;43.05;103631.63;5124541;27;20031;-44
2022/01/13 04:54:17;;;;;;;441.67;337.65;;;;;;;24.37;43.28;103637.69;5124397;27;20167;-45
2022/01/13 04:59:17;;;;;;;438.90;331.67;;;;;;;24.38;43.26;103625.50;5124018;27;20042;-45
2022/01/13 05:01:46;;;;;;;438.73;340.77;;;;;;;24.35;43.45;103631.47;5122696;27;20114;-44
2022/01/13 05:04:15;;;;;;;429.02;331.35;;;;;;;24.33;43.52;103630.47;5122734;27;20023;-48
2022/01/13 05:06:43;;;;;;;433.95;332.48;;;;;;;24.30;43.47;103619.84;5122880;27;20313;-45
2022/01/13 05:09:12;;;;;;;436.33;329.65;;;;;;;24.33;43.28;103621.72;5123964;27;20134;-45
2022/01/13 05:11:40;;;;;;;437.80;334.17;;;;;;;24.33;43.51;103621.72;5123785;27;20431;-47
2022/01/13 05:14:09;;;;;;;453.30;342.75;;;;;;;24.31;43.69;103623.34;5124019;27;20445;-45
2022/01/13 05:16:54;;;;;;;444.80;345.40;;;;;;;24.32;43.26;103620.84;5105819;28;20035;-45
2022/01/13 05:19:34;;;;;;;446.10;342.77;;;;;;;24.38;43.21;103623.75;5123912;28;20051;-44
2022/01/13 05:22:22;;;;;;;451.33;343.58;;;;;;;24.34;43.22;103626.16;5123985;28;20719;-44
2022/01/13 05:24:49;;;;;;;444.92;333.63;;;;;;;24.31;43.49;103632.13;5123876;28;20090;-46
2022/01/13 05:27:19;;;;;;;430.95;332.70;;;;;;;24.33;43.23;103633.09;5123731;28;20019;-45
2022/01/13 05:29:48;;;;;;;439.50;333.83;;;;;;;24.32;43.08;103633.03;5123976;28;20043;-44
2022/01/13 05:32:17;;;;;;;452.58;344.17;;;;;;;24.26;43.55;103628.34;5124022;28;20031;-44
2022/01/13 05:34:45;;;;;;;441.83;339.23;;;;;;;24.26;43.57;103637.13;5123869;28;20081;-44
2022/01/13 05:37:14;;;;;;;435.02;342.73;;;;;;;24.23;43.75;103636.06;5123798;28;20027;-44
2022/01/13 05:39:44;;;;;;;455.27;349.75;;;;;;;24.23;43.79;103643.91;5124075;28;20037;-44
2022/01/13 05:42:13;;;;;;;448.52;340.83;;;;;;;24.26;43.28;103630.97;5123653;28;20027;-44
2022/01/13 05:44:41;;;;;;;447.30;346.58;;;;;;;24.23;43.67;103636.06;5123517;28;20459;-44
2022/01/13 05:47:11;;;;;;;443.95;341.08;;;;;;;24.28;43.19;103650.34;5123487;28;20373;-45
2022/01/13 05:49:41;;;;;;;458.48;347.38;;;;;;;24.22;43.44;103636.88;5123809;28;20046;-44
2022/01/13 05:52:11;;;;;;;446.70;343.40;;;;;;;24.27;43.22;103640.66;5123247;28;20031;-45
2022/01/13 05:54:39;;;;;;;447.35;343.08;;;;;;;24.21;43.71;103635.97;5123440;28;20575;-44
2022/01/13 05:57:08;;;;;;;439.10;336.83;;;;;;;24.26;43.28;103631.88;5124199;28;20031;-45
2022/01/13 05:59:37;;;;;;;436.55;334.15;;;;;;;24.26;43.04;103641.47;5123825;28;20057;-49
2022/01/13 06:02:06;;;;;;;452.20;342.70;;;;;;;24.25;43.57;103642.28;5123565;28;20396;-46
2022/01/13 06:04:35;;;;;;;442.98;334.75;;;;;;;24.20;43.31;103639.41;5074929;28;20083;-45
2022/01/13 06:07:04;;;;;;;446.63;339.05;;;;;;;24.21;43.61;103650.81;5123295;28;20047;-44
2022/01/13 06:09:32;;;;;;;455.33;348.92;;;;;;;24.15;43.56;103648.75;5123357;28;20263;-45
2022/01/13 06:12:03;;;;;;;444.60;343.08;;;;;;;24.20;43.65;103644.66;5123523;27;20063;-44
2022/01/13 06:14:31;;;;;;;432.65;332.80;;;;;;;24.24;43.31;103654.47;5126949;27;20034;-44
2022/01/13 06:17:00;;;;;;;443.92;345.17;;;;;;;24.23;43.43;103649.16;5127394;27;20071;-45
2022/01/13 06:19:29;;;;;;;448.80;344.02;;;;;;;24.21;43.24;103646.47;5126990;27;20474;-48
2022/01/13 06:21:57;;;;;;;443.98;342.85;;;;;;;24.18;43.24;103648.94;5127148;27;20110;-45
2022/01/13 06:24:26;;;;;;;450.98;342.02;;;;;;;24.17;43.63;103646.19;5127370;27;20811;-45
2022/01/13 06:26:54;;;;;;;443.52;336.88;;;;;;;24.18;43.61;103653.25;5126326;27;20501;-45
2022/01/13 06:29:23;;;;;;;437.13;334.10;;;;;;;24.16;43.41;103649.66;5126813;27;20311;-46
2022/01/13 06:31:52;;;;;;;438.40;336.45;;;;;;;24.20;43.08;103646.38;5127395;27;20331;-45
2022/01/13 06:34:20;;;;;;;443.13;343.60;;;;;;;24.17;43.67;103652.38;5127028;27;20514;-44
2022/01/13 06:36:49;;;;;;;449.83;344.13;;;;;;;24.21;43.35;103654.34;5127089;27;20051;-46
2022/01/13 06:39:17;;;;;;;447.30;342.75;;;;;;;24.21;43.44;103648.19;5126918;27;20042;-44
2022/01/13 06:41:46;;;;;;;442.13;346.48;;;;;;;24.14;43.42;103644.31;5126749;27;20027;-45
2022/01/13 06:44:15;;;;;;;451.65;348.75;;;;;;;24.10;43.44;103634.47;5126907;27;20030;-45
2022/01/13 06:46:45;;;;;;;449.75;346.20;;;;;;;24.19;43.17;103647.19;5126551;27;20100;-44
2022/01/13 06:49:13;;;;;;;456.45;347.75;;;;;;;24.23;42.97;103646.53;5126821;27;20055;-45
2022/01/13 06:51:41;;;;;;;455.23;351.92;;;;;;;24.19;43.40;103641.94;5099977;27;20876;-46
2022/01/13 06:54:10;;;;;;;449.60;344.17;;;;;;;24.15;43.20;103642.63;5126793;27;20428;-44
2022/01/13 06:56:37;;;;;;;466.42;350.20;;;;;;;24.15;43.36;103630.41;5126561;27;20027;-45
2022/01/13 06:59:10;;;;;;;456.20;350.25;;;;;;;24.19;43.18;103640.25;5126393;27;20347;-45
2022/01/13 07:01:40;;;;;;;444.92;342.58;;;;;;;24.15;43.36;103640.88;5125742;27;20503;-45
2022/01/13 07:04:09;;;;;;;440.60;342.45;;;;;;;24.18;43.61;103637.50;5098417;27;20117;-45
2022/01/13 07:06:39;;;;;;;448.30;344.38;;;;;;;24.10;43.29;103638.00;5107542;27;20054;-45
2022/01/13 07:09:10;;;;;;;445.45;340.08;;;;;;;24.15;43.53;103638.25;5126051;27;20616;-45
2022/01/13 07:11:37;;;;;;;460.20;344.98;;;;;;;24.13;43.52;103645.13;5126384;27;20027;-45
2022/01/13 07:14:06;;;;;;;450.70;349.92;;;;;;;24.15;43.29;103646.13;5126525;27;20397;-45
2022/01/13 07:16:34;;;;;;;453.70;349.95;;;;;;;24.14;43.28;103646.06;5107674;27;20072;-44
2022/01/13 07:19:04;;;;;;;439.30;338.90;;;;;;;24.12;43.07;103649.50;5125451;27;20039;-45
2022/01/13 07:21:33;;;;;;;457.23;343.80;;;;;;;24.14;43.25;103644.31;5126503;27;20024;-45
2022/01/13 07:24:00;;;;;;;446.08;343.38;;;;;;;24.16;43.35;103644.44;5107086;27;20033;-45
2022/01/13 07:26:29;;;;;;;445.83;340.30;;;;;;;24.14;42.96;103646.06;5125735;27;20027;-45
2022/01/13 07:28:57;;;;;;;440.02;339.98;;;;;;;24.14;43.21;103639.06;5125520;27;20494;-44
2022/01/13 07:31:25;;;;;;;443.40;339.90;;;;;;;24.13;43.50;103653.00;5125139;27;20048;-47
2022/01/13 07:33:54;;;;;;;443.70;333.80;;;;;;;24.12;43.23;103660.00;5106433;27;20072;-45
2022/01/13 07:36:22;;;;;;;435.02;334.77;;;;;;;24.15;43.26;103647.88;5124806;27;20099;-44
2022/01/13 07:38:50;;;;;;;433.48;335.60;;;;;;;24.12;43.25;103649.50;5125992;27;20388;-45
2022/01/13 07:41:18;;;;;;;448.52;342.95;;;;;;;24.12;43.43;103648.56;5126500;27;20035;-45
2022/01/13 07:43:49;;;;;;;447.15;340.95;;;;;;;24.12;43.16;103654.75;5126038;27;20038;-46
2022/01/13 07:46:17;;;;;;;440.63;340.58;;;;;;;24.17;43.08;103651.44;5106746;27;20035;-45
2022/01/13 07:48:46;;;;;;;446.55;336.70;;;;;;;24.07;43.45;103648.34;5125027;27;20106;-45
2022/01/13 07:51:14;;;;;;;438.67;334.30;;;;;;;24.08;43.35;103657.09;5125341;27;20128;-45
2022/01/13 07:53:43;;;;;;;434.13;333.55;;;;;;;24.11;43.18;103657.25;5125436;27;20015;-45
2022/01/13 07:56:11;;;;;;;441.23;335.65;;;;;;;24.10;43.49;103656.38;5125335;27;20027;-45
2022/01/13 07:58:40;;;;;;;451.50;339.08;;;;;;;24.12;43.22;103669.56;5125076;27;20027;-45
2022/01/13 08:01:08;;;;;;;451.65;344.98;;;;;;;24.16;43.21;103660.16;5125277;27;20027;-45
2022/01/13 08:03:36;;;;;;;449.83;344.17;;;;;;;24.19;43.13;103663.84;5125529;27;20023;-44
2022/01/13 08:06:05;;;;;;;450.33;339.38;;;;;;;24.18;43.46;103648.00;5124962;27;20063;-48
2022/01/13 08:08:35;;;;;;;449.33;343.13;;;;;;;24.17;43.15;103659.31;5099118;27;20035;-45
2022/01/13 08:11:06;;;;;;;440.58;339.88;;;;;;;24.19;43.42;103653.34;5125113;27;20067;-44
2022/01/13 08:13:34;;;;;;;448.35;335.77;;;;;;;24.19;43.14;103650.72;5124783;27;20030;-47
2022/01/13 08:16:08;;;;;;;434.42;336.02;;;;;;;24.20;43.01;103646.38;5124848;27;20035;-45
2022/01/13 08:21:24;;;;;;;446.65;339.83;;;;;;;24.20;43.08;103656.88;5116001;27;20138;-45
2022/01/13 08:23:53;;;;;;;439.92;323.38;;;;;;;24.19;43.09;103655.06;5124616;27;20031;-45
2022/01/13 08:26:22;;;;;;;423.15;318.73;;;;;;;24.10;43.23;103639.72;5124765;27;20448;-45
2022/01/13 08:28:51;;;;;;;410.88;316.27;;;;;;;24.14;42.90;103654.81;5124259;27;20087;-47
2022/01/13 08:31:19;;;;;;;416.02;311.05;;;;;;;24.15;42.23;103648.75;5124992;27;20045;-45
2022/01/13 08:33:48;;;;;;;424.10;320.13;;;;;;;24.08;42.85;103652.75;5124801;27;20063;-44
2022/01/13 08:36:16;;;;;;;415.58;314.65;;;;;;;24.07;42.76;103650.94;5123942;27;20122;-44
2022/01/13 08:38:48;;;;;;;422.00;318.20;;;;;;;24.07;42.53;103650.06;5124571;27;20039;-45
2022/01/13 08:41:16;;;;;;;422.92;317.90;;;;;;;24.10;42.62;103645.88;5124581;27;20039;-44
2022/01/13 08:43:45;;;;;;;425.25;314.42;;;;;;;24.06;42.64;103638.66;5124611;27;20041;-45
2022/01/13 08:46:14;;;;;;;427.33;317.05;;;;;;;24.03;43.05;103651.59;5124076;27;20023;-44
2022/01/13 08:48:42;;;;;;;428.60;319.63;;;;;;;24.05;43.08;103652.59;5123722;27;20027;-44
2022/01/13 08:51:11;;;;;;;424.20;317.58;;;;;;;24.09;42.75;103645.78;5124035;27;20027;-45
2022/01/13 08:53:39;;;;;;;420.70;315.20;;;;;;;24.09;42.84;103651.94;5124571;27;20106;-45
2022/01/13 08:56:08;;;;;;;432.42;325.08;;;;;;;24.15;42.67;103646.13;5124728;27;20019;-44
2022/01/13 08:58:37;;;;;;;435.33;326.73;;;;;;;24.17;42.58;103651.44;5124741;27;20031;-45
2022/01/13 09:01:04;;;;;;;428.88;321.83;;;;;;;24.14;42.93;103651.31;5124164;27;20467;-44
2022/01/13 09:03:33;;;;;;;427.00;324.85;;;;;;;24.17;42.52;103646.19;5124344;27;20031;-45
2022/01/13 09:06:01;;;;;;;437.95;328.67;;;;;;;24.18;42.99;103642.75;5123610;27;20047;-46
2022/01/13 09:08:30;;;;;;;437.02;328.88;;;;;;;24.17;42.82;103643.56;5124056;27;20509;-44
2022/01/13 09:10:59;;;;;;;445.85;334.80;;;;;;;24.24;42.67;103644.00;5124316;27;20470;-45
2022/01/13 09:13:27;;;;;;;450.13;335.58;;;;;;;24.21;42.82;103635.97;5124503;27;20031;-45
2022/01/13 09:16:00;;;;;;;443.83;335.88;;;;;;;24.25;42.93;103637.94;5123643;27;20027;-46
2022/01/13 09:18:33;;;;;;;443.63;332.25;;;;;;;24.27;42.95;103638.91;5124319;28;20034;-46
2022/01/13 09:21:02;;;;;;;440.05;326.58;;;;;;;24.30;42.52;103626.78;5123781;28;20027;-45
2022/01/13 09:23:35;;;;;;;428.33;324.98;;;;;;;24.23;42.79;103629.09;5124008;28;20031;-45
2022/01/13 09:26:06;;;;;;;445.15;332.33;;;;;;;24.25;42.62;103634.41;5124019;28;20031;-46
2022/01/13 09:28:35;;;;;;;444.98;337.25;;;;;;;24.23;43.04;103634.34;5123267;28;20051;-44
2022/01/13 09:31:05;;;;;;;449.63;334.20;;;;;;;24.21;42.88;103630.75;5123997;28;20019;-44
2022/01/13 09:33:33;;;;;;;452.33;340.02;;;;;;;24.26;43.16;103631.88;5105240;28;20027;-47
2022/01/13 09:36:03;;;;;;;449.10;335.77;;;;;;;24.32;42.66;103636.56;5104997;28;20033;-46
2022/01/13 09:38:32;;;;;;;451.90;338.10;;;;;;;24.36;42.84;103633.25;5105175;28;20084;-46
2022/01/13 09:41:01;;;;;;;441.33;331.92;;;;;;;24.33;43.01;103630.47;5124080;28;20110;-45
2022/01/13 09:43:30;;;;;;;445.88;331.95;;;;;;;24.36;42.67;103643.75;5123455;28;20027;-46
2022/01/13 09:45:59;;;;;;;450.90;336.83;;;;;;;24.38;43.01;103644.75;5123684;28;20418;-47
2022/01/13 09:48:30;;;;;;;454.73;334.60;;;;;;;24.38;42.81;103636.88;5101669;27;20100;-45
2022/01/13 09:50:59;;;;;;;449.70;338.67;;;;;;;24.36;42.76;103641.13;5128255;27;20027;-46
2022/01/13 09:53:28;;;;;;;452.75;336.45;;;;;;;24.39;43.05;103637.81;5127940;27;20035;-47
2022/01/13 09:55:57;;;;;;;446.50;331.40;;;;;;;24.37;42.78;103639.44;5127737;27;20027;-46
2022/01/13 09:58:26;;;;;;;448.30;329.90;;;;;;;24.33;43.13;103646.22;5109239;27;20110;-47
2022/01/13 10:00:55;;;;;;;443.73;328.73;;;;;;;24.33;42.77;103650.56;5126376;27;20060;-45
2022/01/13 10:03:26;;;;;;;438.20;328.38;;;;;;;24.34;42.76;103644.50;5126929;27;20042;-46
2022/01/13 10:05:58;;;;;;;438.17;328.77;;;;;;;24.33;42.83;103646.22;5127163;27;20058;-46
2022/01/13 10:08:56;;;;;;;429.77;328.80;;;;;;;24.40;42.40;103656.22;5109536;27;20130;-45
2022/01/13 10:11:29;;;;;;;432.85;323.92;;;;;;;24.37;42.30;103650.81;5127110;27;20035;-48
2022/01/13 10:17:22;;;;;;;425.55;316.55;;;;;;;24.39;42.14;103651.81;5101650;27;20558;-49
2022/01/13 10:19:55;;;;;;;431.80;319.10;;;;;;;24.28;42.31;103621.47;5127333;27;20031;-45
2022/01/13 10:22:32;;;;;;;434.52;322.02;;;;;;;24.43;42.19;103648.53;5127199;27;20511;-47
2022/01/13 10:25:01;;;;;;;431.98;323.70;;;;;;;24.40;42.18;103640.50;5127202;27;20091;-46
2022/01/13 10:27:33;;;;;;;433.13;318.85;;;;;;;24.39;42.16;103654.44;5126662;27;20035;-47
2022/01/13 10:30:08;;;;;;;427.17;313.75;;;;;;;24.31;42.75;103645.25;5127196;27;20031;-46
2022/01/13 10:32:39;;;;;;;429.98;316.45;;;;;;;24.37;42.56;103645.56;5108668;27;20050;-46
2022/01/13 10:35:20;;;;;;;437.90;326.80;;;;;;;24.39;42.52;103641.31;5126426;27;20027;-45
2022/01/13 10:37:58;;;;;;;444.65;331.08;;;;;;;24.41;42.50;103650.16;5108564;27;20395;-45
2022/01/13 10:40:29;;;;;;;452.63;332.77;;;;;;;24.39;42.40;103648.28;5126764;27;20110;-47
2022/01/13 10:45:37;;;;;;;446.77;337.15;;;;;;;24.46;42.77;103633.78;5108312;27;20044;-49
2022/01/13 10:48:10;;;;;;;447.08;328.48;;;;;;;24.47;42.76;103635.59;5126616;27;20375;-47
2022/01/13 10:50:43;;;;;;;441.70;330.48;;;;;;;24.44;42.68;103633.69;5126802;27;20045;-45
2022/01/13 10:53:33;;;;;;;438.15;326.83;;;;;;;24.46;42.69;103639.91;5126635;27;20960;-45
2022/01/13 10:56:05;;;;;;;435.85;326.05;;;;;;;24.46;42.67;103633.78;5126478;27;20031;-48
2022/01/13 10:58:41;;;;;;;423.45;316.20;;;;;;;24.47;42.29;103628.59;5125619;27;20134;-48
2022/01/13 11:01:14;;;;;;;399.65;295.23;;;;;;;24.43;41.67;103626.63;5126038;27;20341;-45
2022/01/13 11:03:44;;;;;;;400.88;291.02;;;;;;;24.41;41.66;103625.63;5126478;27;20139;-45
2022/01/13 11:06:13;;;;;;;392.58;288.38;;;;;;;24.38;41.88;103613.25;5125333;27;20054;-46
2022/01/13 11:08:48;;;;;;;398.80;287.30;;;;;;;24.40;41.56;103609.00;5126245;27;20533;-46
2022/01/13 11:11:17;;;;;;;;;;;;;;;24.51;41.55;103617.44;5127368;27;20072;-45
2022/01/13 11:14:03;;;;;;;386.67;284.38;;;;;;;24.50;41.68;103610.41;5126357;27;19911;-46
2022/01/13 11:16:32;;;;;;;400.45;279.30;;;;;;;24.50;41.54;103609.47;5098806;27;20031;-46
2022/01/13 11:19:01;;;;;;;387.65;274.98;;;;;;;24.46;41.69;103608.41;5126275;27;20281;-45
2022/01/13 11:21:30;;;;;;;371.00;271.63;;;;;;;24.46;41.43;103597.03;5107603;27;20108;-45
2022/01/13 11:23:58;;;;;;;371.75;269.10;;;;;;;24.36;41.79;103598.28;5126008;27;20084;-47
2022/01/13 11:26:27;;;;;;;370.77;266.13;;;;;;;24.37;41.92;103592.22;5108020;27;20469;-45
2022/01/13 11:28:57;;;;;;;371.58;264.40;;;;;;;24.40;41.41;103588.00;5125898;27;20480;-46
2022/01/13 11:31:25;;;;;;;355.40;259.38;;;;;;;24.31;41.75;103586.63;5107901;27;20023;-48